Time;durP1;ratioP1;P1;durP2;ratioP2;P2;SDS_P1;SDS_P2;PMS_P1;PMS_P2;Temp;Humidity;BMP_temperature;BMP_pressure;BME280_temperature;BME280_humidity;BME280_pressure;Samples;Min_cycle;Max_cycle;Signal;HPM_P1;HPM_P2
2022/11/09 00:00:46;;;;;;;3.13;2.40;;;;;;;11.94;90.96;100489.84;5133279;27;20070;-76
2022/11/09 00:03:12;;;;;;;5.18;2.40;;;;;;;11.94;90.75;100493.25;5131871;27;20084;-77
2022/11/09 00:05:40;;;;;;;9.50;2.65;;;;;;;11.92;91.16;100492.94;5133366;27;20546;-76
2022/11/09 00:08:08;;;;;;;5.07;2.55;;;;;;;11.89;90.84;100488.53;5133590;27;20067;-77
2022/11/09 00:10:35;;;;;;;4.68;2.40;;;;;;;11.85;91.21;100495.97;5132910;27;20925;-77
2022/11/09 00:13:01;;;;;;;6.65;2.40;;;;;;;11.80;91.21;100499.25;5133655;27;20051;-77
2022/11/09 00:15:28;;;;;;;7.40;2.97;;;;;;;11.77;91.38;100500.16;5133082;27;20048;-77
2022/11/09 00:17:54;;;;;;;7.88;2.10;;;;;;;11.75;91.46;100505.16;5132847;27;20048;-76
2022/11/09 00:20:20;;;;;;;5.40;2.50;;;;;;;11.76;91.62;100501.31;5132512;27;20575;-77
2022/11/09 00:22:48;;;;;;;5.57;2.35;;;;;;;11.75;91.68;100507.09;5133572;27;20043;-76
2022/11/09 00:25:15;;;;;;;4.25;2.50;;;;;;;11.71;92.03;100507.25;5132761;27;20052;-76
2022/11/09 00:27:42;;;;;;;4.75;2.28;;;;;;;11.69;92.09;100509.63;5136107;27;20040;-77
2022/11/09 00:30:09;;;;;;;5.18;2.20;;;;;;;11.66;92.22;100511.28;5135555;27;20043;-76
2022/11/09 00:32:36;;;;;;;5.70;2.50;;;;;;;11.65;92.06;100511.72;5134790;27;20040;-76
2022/11/09 00:35:02;;;;;;;4.72;2.38;;;;;;;11.65;92.28;100509.06;5136863;27;20122;-76
2022/11/09 00:37:30;;;;;;;3.90;2.22;;;;;;;11.68;92.13;100519.56;5134978;27;20193;-76
2022/11/09 00:39:56;;;;;;;5.78;2.42;;;;;;;11.68;92.31;100511.56;5136550;27;20810;-76
2022/11/09 00:42:23;;;;;;;5.13;2.53;;;;;;;11.66;92.16;100505.19;5136714;27;20123;-77
2022/11/09 00:44:50;;;;;;;7.40;2.50;;;;;;;11.62;92.37;100508.03;5136768;27;20040;-76
2022/11/09 00:47:16;;;;;;;5.35;2.10;;;;;;;11.62;92.13;100507.28;5136212;27;20153;-76
2022/11/09 00:49:42;;;;;;;4.43;2.45;;;;;;;11.60;91.94;100505.06;5136729;27;20070;-77
2022/11/09 00:52:09;;;;;;;5.68;2.40;;;;;;;11.60;92.16;100499.75;5136658;27;20123;-77
2022/11/09 00:54:36;;;;;;;8.52;2.58;;;;;;;11.60;92.17;100494.41;5136438;27;20040;-77
2022/11/09 00:57:03;;;;;;;8.07;2.25;;;;;;;11.59;92.07;100498.28;5136469;27;20047;-76
2022/11/09 00:59:29;;;;;;;4.38;2.28;;;;;;;11.57;91.94;100490.00;5134737;27;20134;-77
2022/11/09 01:01:56;;;;;;;3.70;2.17;;;;;;;11.54;92.06;100492.84;5134635;27;20047;-77
2022/11/09 01:04:22;;;;;;;7.20;2.28;;;;;;;11.48;92.13;100495.38;5134586;27;20064;-77
2022/11/09 01:06:49;;;;;;;7.13;2.20;;;;;;;11.47;91.96;100488.56;5152272;27;20131;-76
2022/11/09 01:09:15;;;;;;;4.70;1.98;;;;;;;11.46;91.61;100491.69;5134796;27;20078;-77
2022/11/09 01:11:42;;;;;;;5.22;2.10;;;;;;;11.48;91.53;100491.97;5136177;27;20048;-78
2022/11/09 01:14:09;;;;;;;9.77;2.00;;;;;;;11.46;91.33;100497.75;5136309;27;20446;-77
2022/11/09 01:16:36;;;;;;;6.78;1.95;;;;;;;11.43;91.51;100495.25;5135521;27;20130;-77
2022/11/09 01:19:02;;;;;;;12.30;2.03;;;;;;;11.42;90.91;100488.44;5134669;27;20051;-77
2022/11/09 01:21:29;;;;;;;4.20;1.80;;;;;;;11.43;91.03;100495.25;5135711;27;20089;-76
2022/11/09 01:23:58;;;;;;;3.60;1.77;;;;;;;11.43;90.59;100503.97;5134475;27;20067;-77
2022/11/09 01:26:26;;;;;;;7.20;2.00;;;;;;;11.43;90.37;100509.31;5133761;27;20112;-77
2022/11/09 01:28:52;;;;;;;7.57;1.80;;;;;;;11.48;89.77;100508.69;5134330;27;20134;-77
2022/11/09 01:31:20;;;;;;;6.18;2.03;;;;;;;11.47;89.62;100504.56;5133858;27;20071;-76
2022/11/09 01:33:47;;;;;;;7.38;1.92;;;;;;;11.52;88.99;100516.53;5134038;27;20063;-76
2022/11/09 01:36:19;;;;;;;8.70;1.77;;;;;;;11.51;88.98;100510.47;5135639;27;20584;-76
2022/11/09 01:38:47;;;;;;;5.78;1.70;;;;;;;11.52;88.57;100513.88;5134505;27;20039;-76
2022/11/09 01:41:20;;;;;;;5.35;1.88;;;;;;;11.49;88.78;100509.44;5134365;27;20117;-76
2022/11/09 01:44:08;;;;;;;12.45;2.40;;;;;;;11.46;88.52;100516.41;5135371;27;20046;-76
2022/11/09 01:46:55;;;;;;;6.93;1.50;;;;;;;11.41;88.52;100514.34;5135455;27;20044;-76
2022/11/09 01:49:36;;;;;;;4.63;1.40;;;;;;;11.38;88.67;100512.59;5135960;27;20183;-76
2022/11/09 01:52:16;;;;;;;5.50;1.80;;;;;;;11.31;88.86;100510.97;5135913;27;20123;-76
2022/11/09 01:54:48;;;;;;;5.82;1.83;;;;;;;11.28;89.12;100519.13;5134916;27;20079;-76
2022/11/09 01:57:20;;;;;;;5.10;1.80;;;;;;;11.26;88.87;100518.84;5135617;27;20146;-77
2022/11/09 02:00:01;;;;;;;8.38;1.92;;;;;;;11.25;89.05;100525.34;5133214;27;20470;-76
2022/11/09 02:02:43;;;;;;;7.40;1.67;;;;;;;11.21;89.33;100517.50;5134357;27;20126;-76
2022/11/09 02:05:13;;;;;;;7.82;1.77;;;;;;;11.23;89.72;100522.41;5133512;27;20040;-76
2022/11/09 02:07:41;;;;;;;8.32;1.75;;;;;;;11.25;89.63;100526.09;5132006;27;20522;-76
2022/11/09 02:10:17;;;;;;;10.25;1.50;;;;;;;11.30;89.57;100516.75;5132730;27;20108;-76
2022/11/09 02:12:45;;;;;;;5.28;1.55;;;;;;;11.31;89.39;100518.22;5131806;27;20488;-76
2022/11/09 02:15:12;;;;;;;10.02;2.00;;;;;;;11.30;89.55;100517.50;5133350;27;20050;-76
2022/11/09 02:17:40;;;;;;;7.68;1.75;;;;;;;11.31;89.30;100502.25;5132486;27;20151;-76
2022/11/09 02:20:11;;;;;;;6.55;1.73;;;;;;;11.31;89.53;100497.66;5135269;27;20119;-76
2022/11/09 02:22:40;;;;;;;7.95;2.20;;;;;;;11.32;89.50;100493.78;5134893;27;20122;-76
2022/11/09 02:25:11;;;;;;;9.68;1.65;;;;;;;11.31;89.80;100502.25;5134938;27;20071;-76
2022/11/09 02:27:39;;;;;;;10.23;2.10;;;;;;;11.28;90.43;100516.47;5132714;27;20052;-76
2022/11/09 02:30:06;;;;;;;9.40;2.08;;;;;;;11.30;90.34;100503.44;5133413;27;20055;-76
2022/11/09 02:32:33;;;;;;;10.95;1.83;;;;;;;11.34;90.30;100506.66;5133111;27;20092;-76
2022/11/09 02:35:00;;;;;;;6.90;2.10;;;;;;;11.34;90.51;100512.75;5133586;27;20047;-76
2022/11/09 02:37:34;;;;;;;4.40;2.03;;;;;;;11.37;90.70;100527.09;5134668;27;20101;-76
2022/11/09 02:40:06;;;;;;;9.85;2.97;;;;;;;11.41;90.84;100525.00;5133414;27;20072;-76
2022/11/09 02:42:33;;;;;;;10.65;2.38;;;;;;;11.43;90.69;100527.22;5132741;27;20044;-76
2022/11/09 02:44:59;;;;;;;10.90;2.90;;;;;;;11.41;91.11;100525.00;5132987;27;20051;-76
2022/11/09 02:47:26;;;;;;;4.78;1.95;;;;;;;11.40;91.45;100509.47;5133030;27;20142;-76
2022/11/09 02:49:53;;;;;;;6.03;1.90;;;;;;;11.38;91.62;100517.19;5132879;27;20044;-76
2022/11/09 02:52:19;;;;;;;5.00;1.80;;;;;;;11.37;92.24;100535.09;5134772;27;20067;-76
2022/11/09 02:54:46;;;;;;;5.55;2.20;;;;;;;11.40;92.03;100525.47;5132811;27;20110;-76
2022/11/09 02:57:13;;;;;;;4.95;1.92;;;;;;;11.42;92.24;100515.09;5132701;27;20056;-76
2022/11/09 02:59:41;;;;;;;8.25;2.35;;;;;;;11.40;92.09;100515.53;5132875;27;20051;-76
2022/11/09 03:02:09;;;;;;;8.13;2.30;;;;;;;11.41;92.46;100527.69;5133011;27;20043;-76
2022/11/09 03:04:36;;;;;;;7.47;2.10;;;;;;;11.44;92.25;100526.78;5133972;27;20457;-76
2022/11/09 03:07:03;;;;;;;3.63;1.98;;;;;;;11.44;92.31;100518.78;5132935;27;20120;-76
2022/11/09 03:09:30;;;;;;;5.07;2.08;;;;;;;11.46;92.65;100516.41;5132456;27;20522;-76
2022/11/09 03:11:56;;;;;;;5.53;1.80;;;;;;;11.46;92.68;100516.41;5133949;27;20043;-76
2022/11/09 03:14:23;;;;;;;6.65;2.40;;;;;;;11.46;92.80;100513.75;5132604;27;20079;-76
2022/11/09 03:16:54;;;;;;;7.10;1.73;;;;;;;11.49;92.65;100528.84;5132789;27;20143;-76
2022/11/09 03:19:21;;;;;;;5.80;2.05;;;;;;;11.48;92.22;100527.38;5132939;27;20497;-76
2022/11/09 03:21:50;;;;;;;6.93;2.30;;;;;;;11.45;92.70;100522.19;5133032;27;20044;-76
2022/11/09 03:24:20;;;;;;;9.05;2.20;;;;;;;11.39;92.71;100530.06;5132337;27;20048;-76
2022/11/09 03:26:49;;;;;;;2.65;1.88;;;;;;;11.39;92.73;100535.38;5131796;27;20512;-76
2022/11/09 03:29:15;;;;;;;10.88;2.20;;;;;;;11.42;92.63;100534.47;5132520;27;20035;-76
2022/11/09 03:31:42;;;;;;;7.60;2.13;;;;;;;11.40;92.60;100526.19;5133900;27;20048;-76
2022/11/09 03:34:09;;;;;;;4.85;2.08;;;;;;;11.34;93.24;100533.31;5132559;27;20048;-76
2022/11/09 03:36:35;;;;;;;5.22;1.55;;;;;;;11.30;93.22;100535.41;5132366;27;20048;-76
2022/11/09 03:39:02;;;;;;;6.53;1.83;;;;;;;11.30;93.14;100538.06;5132415;27;20452;-77
2022/11/09 03:41:28;;;;;;;5.35;1.70;;;;;;;11.31;92.89;100537.63;5131688;27;20118;-76
2022/11/09 03:43:55;;;;;;;5.43;1.75;;;;;;;11.31;92.94;100542.94;5132304;27;20508;-76
2022/11/09 03:46:21;;;;;;;3.40;1.88;;;;;;;11.29;93.02;100537.34;5134001;27;20604;-76
2022/11/09 03:48:48;;;;;;;6.22;2.03;;;;;;;11.29;93.09;100537.34;5133985;27;20040;-77
2022/11/09 03:51:14;;;;;;;2.42;1.60;;;;;;;11.26;93.35;100545.47;5134043;27;20075;-76
2022/11/09 03:53:41;;;;;;;5.03;1.92;;;;;;;11.24;93.33;100553.19;5133181;27;20115;-77
2022/11/09 03:56:07;;;;;;;6.63;1.90;;;;;;;11.21;93.38;100556.75;5133155;27;20116;-76
2022/11/09 03:58:33;;;;;;;6.25;1.63;;;;;;;11.18;93.47;100555.00;5133431;27;20063;-76
2022/11/09 04:01:00;;;;;;;6.72;2.03;;;;;;;11.16;93.73;100560.03;5134594;27;20052;-77
2022/11/09 04:03:26;;;;;;;7.35;1.80;;;;;;;11.14;93.77;100563.13;5137181;27;20069;-76
2022/11/09 04:05:53;;;;;;;5.10;1.73;;;;;;;11.13;93.71;100566.25;5137112;27;20047;-77
2022/11/09 04:08:19;;;;;;;5.68;1.95;;;;;;;11.10;93.48;100567.88;5136928;27;20114;-77
2022/11/09 04:10:46;;;;;;;4.68;2.00;;;;;;;11.10;93.63;100567.13;5136722;27;20104;-77
2022/11/09 04:13:12;;;;;;;5.88;2.03;;;;;;;11.09;93.68;100571.72;5137080;27;20114;-76
2022/11/09 04:15:38;;;;;;;4.20;1.55;;;;;;;11.12;93.15;100565.50;5137129;27;20050;-76
2022/11/09 04:18:05;;;;;;;6.68;1.75;;;;;;;11.12;93.28;100570.09;5137087;27;20123;-76
2022/11/09 04:20:31;;;;;;;5.82;1.92;;;;;;;11.08;93.48;100572.91;5135638;27;20044;-77
2022/11/09 04:23:01;;;;;;;3.83;1.63;;;;;;;11.03;93.42;100566.25;5137193;27;20040;-77
2022/11/09 04:25:31;;;;;;;5.00;1.90;;;;;;;11.02;93.44;100580.75;5135635;27;20052;-76
2022/11/09 04:27:59;;;;;;;4.85;1.38;;;;;;;11.01;93.36;100579.28;5137157;27;20115;-76
2022/11/09 04:30:27;;;;;;;6.57;1.73;;;;;;;11.02;93.48;100582.69;5136620;27;20078;-76
2022/11/09 04:32:55;;;;;;;7.05;1.88;;;;;;;11.04;92.94;100590.97;5136714;27;20074;-76
2022/11/09 04:35:22;;;;;;;5.40;1.73;;;;;;;11.00;92.99;100585.06;5136756;27;20046;-76
2022/11/09 04:38:00;;;;;;;5.85;1.48;;;;;;;10.99;93.09;100594.97;5136347;27;20071;-76
2022/11/09 04:40:29;;;;;;;5.43;1.80;;;;;;;11.01;93.08;100589.94;5135322;27;20071;-75
2022/11/09 04:42:58;;;;;;;6.13;1.75;;;;;;;10.97;92.87;100588.59;5136773;27;20540;-76
2022/11/09 04:45:24;;;;;;;7.63;1.70;;;;;;;10.93;92.91;100586.09;5136292;27;20309;-77
2022/11/09 04:47:56;;;;;;;6.00;2.10;;;;;;;10.94;93.24;100587.56;5136257;27;20031;-75
2022/11/09 04:50:22;;;;;;;7.38;1.50;;;;;;;10.95;92.26;100593.63;5134881;27;20051;-76
2022/11/09 04:52:50;;;;;;;7.85;1.73;;;;;;;10.95;92.52;100596.28;5135987;27;20047;-76
2022/11/09 04:55:16;;;;;;;8.63;2.10;;;;;;;10.94;92.43;100598.22;5136562;27;20587;-77
2022/11/09 04:57:43;;;;;;;4.53;1.35;;;;;;;10.94;92.40;100598.22;5136205;27;20122;-76
2022/11/09 05:00:10;;;;;;;3.53;1.45;;;;;;;10.94;92.41;100598.22;5136236;27;20050;-76
2022/11/09 05:02:36;;;;;;;5.63;1.60;;;;;;;10.93;92.13;100596.00;5136116;27;20107;-76
2022/11/09 05:05:03;;;;;;;7.25;1.33;;;;;;;10.88;92.67;100593.94;5136496;27;20082;-76
2022/11/09 05:07:30;;;;;;;8.27;1.63;;;;;;;10.86;92.49;100594.38;5134094;27;20048;-77
2022/11/09 05:09:56;;;;;;;7.07;1.85;;;;;;;10.87;92.13;100593.19;5136598;27;20528;-76
2022/11/09 05:12:22;;;;;;;8.60;1.73;;;;;;;10.90;92.20;100599.56;5135784;27;20071;-76
2022/11/09 05:14:49;;;;;;;4.43;1.70;;;;;;;10.87;92.39;100592.44;5135866;27;20044;-76
2022/11/09 05:17:15;;;;;;;11.40;1.50;;;;;;;10.87;92.48;100595.13;5136153;27;20063;-76
2022/11/09 05:19:42;;;;;;;7.47;1.63;;;;;;;10.86;92.28;100590.97;5135954;27;20051;-76
2022/11/09 05:24:53;;;;;;;5.72;1.23;;;;;;;10.84;92.20;100599.41;5135611;27;20095;-76
2022/11/09 05:27:20;;;;;;;4.43;1.98;;;;;;;10.82;92.64;100599.09;5135879;27;20126;-76
2022/11/09 05:29:46;;;;;;;4.53;1.33;;;;;;;10.81;92.84;100597.63;5136025;27;20122;-76
2022/11/09 05:32:12;;;;;;;5.30;1.52;;;;;;;10.81;92.88;100594.97;5135988;27;20079;-76
2022/11/09 05:34:39;;;;;;;3.42;1.40;;;;;;;10.79;93.32;100600.03;5135500;27;20067;-76
2022/11/09 05:37:05;;;;;;;7.63;1.50;;;;;;;10.78;93.03;100600.47;5134097;27;20059;-76
2022/11/09 05:39:32;;;;;;;6.38;1.85;;;;;;;10.78;93.18;100606.53;5135479;27;20035;-76
2022/11/09 05:41:58;;;;;;;7.07;1.73;;;;;;;10.75;93.56;100607.41;5135540;27;20039;-76
2022/11/09 05:44:25;;;;;;;9.13;1.92;;;;;;;10.73;93.66;100609.03;5135399;27;20127;-76
2022/11/09 05:46:51;;;;;;;6.20;1.80;;;;;;;10.73;93.68;100609.78;5135798;27;20122;-76
2022/11/09 05:49:18;;;;;;;7.38;1.55;;;;;;;10.76;94.15;100611.56;5135786;27;20040;-76
2022/11/09 05:51:44;;;;;;;6.38;1.80;;;;;;;10.76;94.09;100605.47;5135152;27;20127;-76
2022/11/09 05:54:11;;;;;;;9.02;1.60;;;;;;;10.75;94.05;100610.06;5135603;27;20039;-76
2022/11/09 05:56:37;;;;;;;4.68;1.80;;;;;;;10.73;93.83;100601.78;5135310;27;20043;-76
2022/11/09 05:59:03;;;;;;;8.52;1.83;;;;;;;10.73;94.18;100604.44;5135535;27;20048;-76
2022/11/09 06:01:30;;;;;;;12.90;2.30;;;;;;;10.72;94.13;100602.97;5134968;27;20093;-77
2022/11/09 06:03:56;;;;;;;8.52;2.40;;;;;;;10.73;94.23;100606.38;5135536;27;20074;-76
2022/11/09 06:06:23;;;;;;;9.27;2.25;;;;;;;10.73;94.13;100595.72;5134763;27;20067;-76
2022/11/09 06:08:49;;;;;;;7.90;1.83;;;;;;;10.69;93.92;100603.84;5135212;27;20047;-76
2022/11/09 06:11:16;;;;;;;4.50;1.90;;;;;;;10.71;94.23;100606.81;5135125;27;20040;-76
2022/11/09 06:13:49;;;;;;;4.85;1.48;;;;;;;10.71;94.24;100622.03;5134133;27;20050;-76
2022/11/09 06:16:15;;;;;;;11.95;2.42;;;;;;;10.73;93.74;100611.69;5135223;27;20484;-75
2022/11/09 06:18:42;;;;;;;11.50;1.92;;;;;;;10.71;93.86;100614.78;5134753;27;20714;-75
2022/11/09 06:21:08;;;;;;;7.55;1.77;;;;;;;10.69;94.04;100625.88;5133141;27;20541;-76
2022/11/09 06:23:35;;;;;;;4.45;1.67;;;;;;;10.67;94.05;100630.19;5133582;27;20043;-76
2022/11/09 06:26:08;;;;;;;5.43;1.70;;;;;;;10.66;93.96;100620.72;5134644;27;20205;-76
2022/11/09 06:28:36;;;;;;;11.05;1.83;;;;;;;10.64;94.20;100631.06;5133094;27;20218;-75
2022/11/09 06:31:06;;;;;;;8.45;1.92;;;;;;;10.62;94.51;100636.09;5134688;27;20581;-76
2022/11/09 06:33:34;;;;;;;8.65;1.92;;;;;;;10.62;94.51;100641.41;5134317;27;20500;-76
2022/11/09 06:36:01;;;;;;;9.70;2.30;;;;;;;10.62;94.87;100647.47;5133926;27;20123;-76
2022/11/09 06:38:28;;;;;;;6.45;1.98;;;;;;;10.58;94.69;100646.13;5134634;27;20450;-76
2022/11/09 06:40:56;;;;;;;6.32;1.88;;;;;;;10.55;95.16;100652.31;5134577;27;20111;-75
2022/11/09 06:43:24;;;;;;;10.07;2.22;;;;;;;10.55;95.32;100647.75;5134217;27;20050;-75
2022/11/09 06:45:50;;;;;;;6.93;1.92;;;;;;;10.58;95.39;100656.78;5134451;27;20067;-75
2022/11/09 06:48:17;;;;;;;5.97;1.80;;;;;;;10.56;95.58;100649.22;5132622;27;20067;-77
2022/11/09 06:50:43;;;;;;;4.22;1.80;;;;;;;10.56;95.55;100645.81;5134022;27;20487;-76
2022/11/09 06:53:13;;;;;;;11.90;2.00;;;;;;;10.54;95.48;100648.19;5132897;27;20075;-76
2022/11/09 06:55:40;;;;;;;11.13;2.10;;;;;;;10.54;95.80;100648.19;5133952;27;20067;-75
2022/11/09 06:58:15;;;;;;;6.55;2.20;;;;;;;10.54;95.48;100650.84;5133461;27;20051;-76
2022/11/09 07:00:44;;;;;;;8.23;2.63;;;;;;;10.50;95.78;100652.91;5134115;27;20100;-76
2022/11/09 07:03:13;;;;;;;7.55;2.20;;;;;;;10.49;96.19;100649.50;5133230;27;20059;-77
2022/11/09 07:05:40;;;;;;;6.53;2.13;;;;;;;10.46;95.89;100658.38;5134393;27;20553;-75
2022/11/09 07:08:07;;;;;;;8.85;2.35;;;;;;;10.46;96.35;100657.63;5134950;27;20187;-77
2022/11/09 07:10:34;;;;;;;9.07;2.20;;;;;;;10.46;96.37;100660.28;5134626;27;20050;-78
2022/11/09 07:13:02;;;;;;;6.05;2.00;;;;;;;10.47;96.58;100667.09;5133817;27;20068;-80
2022/11/09 07:15:28;;;;;;;12.13;2.47;;;;;;;10.47;96.47;100670.50;5133592;27;20104;-79
2022/11/09 07:17:59;;;;;;;9.35;2.22;;;;;;;10.48;96.21;100658.66;5132994;27;20046;-77
2022/11/09 07:20:26;;;;;;;19.30;2.80;;;;;;;10.47;96.40;100667.09;5133960;27;20569;-78
2022/11/09 07:22:53;;;;;;;10.43;2.25;;;;;;;10.49;96.31;100664.72;5134592;27;20469;-78
2022/11/09 07:25:20;;;;;;;10.07;2.45;;;;;;;10.51;96.70;100665.03;5134119;27;20591;-78
2022/11/09 07:27:47;;;;;;;6.90;2.42;;;;;;;10.54;96.55;100664.16;5134530;27;20051;-77
2022/11/09 07:30:14;;;;;;;14.05;2.55;;;;;;;10.58;96.64;100665.50;5134398;27;20040;-79
2022/11/09 07:32:41;;;;;;;13.05;2.45;;;;;;;10.65;96.39;100673.22;5133846;27;20123;-78
2022/11/09 07:35:28;;;;;;;7.53;2.22;;;;;;;10.74;96.06;100663.75;5133155;27;20065;-77
2022/11/09 07:37:59;;;;;;;17.70;2.17;;;;;;;10.81;95.83;100666.84;5138200;27;20124;-77
2022/11/09 07:40:25;;;;;;;6.15;2.05;;;;;;;10.87;95.92;100667.75;5137968;27;20055;-77
2022/11/09 07:42:51;;;;;;;10.98;2.15;;;;;;;10.90;95.52;100669.53;5138151;27;20052;-77
2022/11/09 07:45:18;;;;;;;11.68;2.15;;;;;;;10.95;95.37;100678.88;5144905;27;20047;-77
2022/11/09 07:47:47;;;;;;;4.43;1.92;;;;;;;10.99;94.83;100677.53;5158336;27;20039;-76
2022/11/09 07:50:14;;;;;;;8.40;1.90;;;;;;;11.02;95.06;100676.66;5158791;27;20043;-77
2022/11/09 07:52:40;;;;;;;8.70;2.08;;;;;;;11.05;94.95;100683.03;5158769;27;20087;-78
2022/11/09 07:55:07;;;;;;;11.32;2.47;;;;;;;11.08;94.78;100687.47;5158712;27;20123;-76
2022/11/09 07:57:34;;;;;;;9.30;2.33;;;;;;;11.12;94.74;100684.66;5157227;27;20104;-77
2022/11/09 08:00:00;;;;;;;8.77;2.45;;;;;;;11.13;94.12;100686.13;5158431;27;20040;-77
2022/11/09 08:02:36;;;;;;;10.13;2.10;;;;;;;11.14;94.11;100695.59;5156710;27;20054;-76
2022/11/09 08:05:03;;;;;;;7.05;2.45;;;;;;;11.16;93.75;100690.56;5158666;27;20104;-76
2022/11/09 08:07:32;;;;;;;10.10;2.30;;;;;;;11.17;93.99;100684.81;5150135;27;20190;-77
2022/11/09 08:09:58;;;;;;;10.98;2.25;;;;;;;11.21;93.64;100689.97;5137387;27;20134;-76
2022/11/09 08:12:25;;;;;;;8.00;1.90;;;;;;;11.21;93.83;100685.38;5137515;27;20059;-79
2022/11/09 08:14:51;;;;;;;9.23;2.80;;;;;;;11.21;93.63;100689.97;5137851;27;20122;-76
2022/11/09 08:17:20;;;;;;;6.22;2.50;;;;;;;11.28;93.77;100684.34;5137350;27;20044;-77
2022/11/09 08:19:49;;;;;;;8.68;2.05;;;;;;;11.31;93.19;100692.19;5137658;27;20095;-77
2022/11/09 08:22:15;;;;;;;6.72;1.75;;;;;;;11.33;93.09;100689.06;5137371;27;20079;-78
2022/11/09 08:24:41;;;;;;;9.98;2.08;;;;;;;11.35;93.00;100692.03;5137370;27;20039;-80
2022/11/09 08:27:08;;;;;;;5.72;2.30;;;;;;;11.39;92.80;100699.88;5137678;27;20047;-77
2022/11/09 08:29:35;;;;;;;8.20;2.10;;;;;;;11.44;92.87;100696.63;5137200;27;20067;-79
2022/11/09 08:32:01;;;;;;;7.80;2.75;;;;;;;11.47;92.70;100701.06;5135838;27;20078;-79
2022/11/09 08:34:28;;;;;;;12.73;2.20;;;;;;;11.50;91.95;100700.91;5137485;27;20178;-76
2022/11/09 08:36:59;;;;;;;11.43;2.33;;;;;;;11.57;92.01;100699.88;5137812;27;20097;-81
2022/11/09 08:39:25;;;;;;;7.07;2.60;;;;;;;11.61;91.86;100706.50;5138737;27;20085;-82
2022/11/09 08:41:51;;;;;;;8.23;2.70;;;;;;;11.66;91.51;100705.19;5136437;27;20130;-80
2022/11/09 08:44:18;;;;;;;5.55;1.92;;;;;;;11.72;91.10;100702.66;5136731;27;20557;-81
2022/11/09 08:46:44;;;;;;;7.78;2.17;;;;;;;11.74;91.21;100710.94;5136571;27;20070;-77
2022/11/09 08:49:12;;;;;;;5.55;2.50;;;;;;;11.79;91.20;100713.03;5137107;27;20071;-77
2022/11/09 08:51:38;;;;;;;12.93;2.88;;;;;;;11.86;90.46;100713.47;5135627;27;20245;-79
2022/11/09 08:54:04;;;;;;;8.20;2.90;;;;;;;11.95;89.73;100712.72;5118443;27;20122;-82
2022/11/09 08:56:31;;;;;;;14.45;3.60;;;;;;;11.97;89.66;100719.09;5137054;27;20126;-83
2022/11/09 08:58:57;;;;;;;7.32;2.55;;;;;;;11.99;89.55;100710.63;5136403;27;20126;-87
2022/11/09 09:01:24;;;;;;;7.38;2.40;;;;;;;12.04;89.73;100723.34;5136970;27;20127;-85
2022/11/09 09:03:50;;;;;;;8.55;2.80;;;;;;;12.08;89.43;100707.19;5137125;27;20074;-84
2022/11/09 09:06:17;;;;;;;5.93;2.83;;;;;;;12.15;89.03;100715.59;5137934;27;20048;-87
2022/11/09 09:08:43;;;;;;;11.45;2.75;;;;;;;12.22;88.11;100720.63;5137865;27;20111;-90
2022/11/09 09:11:10;;;;;;;10.25;2.65;;;;;;;12.22;88.29;100717.97;5138163;27;20087;-90
2022/11/09 09:13:39;;;;;;;9.20;2.97;;;;;;;12.23;87.95;100716.03;5137096;27;20048;-84
2022/11/09 09:16:13;;;;;;;8.07;2.67;;;;;;;12.26;87.91;100715.13;5137159;27;20047;-86
2022/11/09 09:18:40;;;;;;;9.82;2.80;;;;;;;12.33;87.48;100722.81;5136926;27;20039;-86
2022/11/09 09:21:08;;;;;;;5.88;2.13;;;;;;;12.42;87.55;100722.00;5135539;27;20817;-87
2022/11/09 09:23:34;;;;;;;8.25;2.83;;;;;;;12.49;87.60;100727.78;5116157;27;20075;-86
2022/11/09 09:26:01;;;;;;;9.60;2.88;;;;;;;12.52;87.03;100723.47;5136480;27;20486;-84
2022/11/09 09:28:27;;;;;;;11.48;2.55;;;;;;;12.53;86.88;100722.25;5136570;27;20118;-85
2022/11/09 09:31:00;;;;;;;6.95;2.85;;;;;;;12.49;86.35;100722.44;5136234;27;20047;-84
2022/11/09 09:33:27;;;;;;;8.90;3.00;;;;;;;12.52;86.24;100726.88;5135752;27;20027;-84
2022/11/09 09:35:56;;;;;;;8.48;3.03;;;;;;;12.57;85.82;100722.84;5136297;27;20122;-85
2022/11/09 09:38:24;;;;;;;9.80;3.55;;;;;;;12.60;86.06;100724.59;5134817;27;20044;-83
2022/11/09 09:40:59;;;;;;;12.35;3.17;;;;;;;12.64;85.13;100728.59;5134573;27;20055;-83
2022/11/09 09:43:31;;;;;;;11.77;3.05;;;;;;;12.69;84.97;100714.63;5135941;27;20043;-83
2022/11/09 09:46:01;;;;;;;9.82;3.15;;;;;;;12.75;84.28;100724.69;5136369;27;20126;-82
2022/11/09 09:48:41;;;;;;;7.75;3.20;;;;;;;12.88;84.38;100735.88;5134955;27;20044;-86
2022/11/09 09:51:31;;;;;;;8.23;2.88;;;;;;;12.96;84.07;100732.41;5136261;27;20051;-91
2022/11/09 09:54:18;;;;;;;10.05;2.53;;;;;;;12.97;83.79;100717.13;5136426;27;20044;-85
2022/11/09 09:56:49;;;;;;;6.47;3.00;;;;;;;12.92;84.16;100733.78;5117030;27;20048;-83
2022/11/09 09:59:39;;;;;;;5.43;2.33;;;;;;;12.91;84.84;100751.72;5133783;27;20089;-83
2022/11/09 10:02:20;;;;;;;6.65;2.83;;;;;;;12.98;84.38;100747.97;5135605;27;20052;-85
2022/11/09 10:04:47;;;;;;;14.43;3.47;;;;;;;13.08;83.83;100752.06;5136521;27;20153;-84
2022/11/09 10:07:22;;;;;;;8.45;2.83;;;;;;;13.19;83.39;100744.31;5136140;27;20048;-83
2022/11/09 10:10:05;;;;;;;16.13;3.13;;;;;;;13.23;83.38;100752.13;5135515;27;20032;-84
2022/11/09 10:12:39;;;;;;;7.47;2.30;;;;;;;13.33;83.21;100759.63;5133922;27;20504;-84
2022/11/09 10:15:18;;;;;;;7.05;2.40;;;;;;;13.44;83.36;100756.44;5136205;27;20535;-83
2022/11/09 10:18:14;;;;;;;8.90;3.42;;;;;;;13.47;82.65;100760.88;5135740;27;20119;-83
2022/11/09 10:21:08;;;;;;;8.23;2.65;;;;;;;13.50;82.55;100767.97;5134177;27;20046;-86
2022/11/09 10:24:01;;;;;;;13.63;2.90;;;;;;;13.48;82.47;100762.34;5135897;27;20048;-80
2022/11/09 10:26:53;;;;;;;10.43;3.33;;;;;;;13.46;81.26;100767.41;5132933;27;20136;-81
2022/11/09 10:29:41;;;;;;;7.38;3.05;;;;;;;13.41;82.18;100773.41;5135202;27;20097;-83
2022/11/09 10:32:19;;;;;;;7.68;2.78;;;;;;;13.38;81.63;100774.31;5135232;27;20118;-80
2022/11/09 10:35:03;;;;;;;9.07;2.33;;;;;;;13.32;81.84;100776.13;5135023;27;20075;-79
2022/11/09 10:37:33;;;;;;;6.68;2.80;;;;;;;13.28;81.46;100760.25;5135484;27;20116;-79
2022/11/09 10:40:09;;;;;;;7.22;2.72;;;;;;;13.35;81.94;100772.53;5134870;27;20043;-83
2022/11/09 10:42:58;;;;;;;8.43;2.92;;;;;;;13.47;80.64;100766.22;5134036;27;20040;-83
2022/11/09 10:45:44;;;;;;;5.15;2.50;;;;;;;13.44;79.97;100777.84;5136616;27;20056;-91
2022/11/09 10:48:35;;;;;;;19.42;3.45;;;;;;;13.49;80.47;100774.53;5133233;27;20119;-83
2022/11/09 10:51:41;;;;;;;8.35;2.58;;;;;;;13.46;80.45;100780.06;5132814;27;20504;-83
2022/11/09 10:54:32;;;;;;;6.60;2.55;;;;;;;13.48;79.57;100785.69;5134163;27;20453;-80
2022/11/09 10:57:20;;;;;;;5.82;2.70;;;;;;;13.54;79.86;100776.56;5133460;27;20575;-80
2022/11/09 11:00:14;;;;;;;8.63;2.63;;;;;;;13.55;79.44;100779.97;5135161;27;20052;-82
2022/11/09 11:03:17;;;;;;;9.27;2.80;;;;;;;13.47;79.46;100771.56;5135701;27;20043;-84
2022/11/09 11:06:14;;;;;;;13.02;2.85;;;;;;;13.42;79.10;100769.53;5134891;27;20093;-83
2022/11/09 11:08:59;;;;;;;9.95;2.72;;;;;;;13.37;79.35;100772.84;5135367;27;20123;-80
2022/11/09 11:11:44;;;;;;;12.68;2.90;;;;;;;13.41;78.86;100778.75;5132654;27;20051;-81
2022/11/09 11:14:40;;;;;;;12.48;2.72;;;;;;;13.52;78.52;100772.88;5134258;27;20131;-80
2022/11/09 11:17:33;;;;;;;6.20;2.67;;;;;;;13.55;78.09;100771.97;5138117;27;20135;-85
2022/11/09 11:20:34;;;;;;;5.05;2.45;;;;;;;13.49;78.37;100779.88;5134624;27;20086;-84
2022/11/09 11:23:25;;;;;;;5.35;2.70;;;;;;;13.50;78.03;100773.34;5138199;27;20079;-87
2022/11/09 11:26:24;;;;;;;8.50;2.58;;;;;;;13.50;79.26;100762.63;5127177;27;20506;-82
2022/11/09 11:29:21;;;;;;;5.28;2.60;;;;;;;13.41;80.53;100770.72;5134616;27;20133;-83
2022/11/09 11:32:14;;;;;;;7.60;2.42;;;;;;;13.44;80.18;100764.47;5135666;27;20059;-84
2022/11/09 11:35:26;;;;;;;8.95;2.30;;;;;;;13.40;80.39;100768.50;5135719;27;20040;-85
2022/11/09 11:38:27;;;;;;;5.95;2.22;;;;;;;13.34;79.15;100771.81;5133575;27;20130;-85
2022/11/09 11:41:25;;;;;;;5.95;2.35;;;;;;;13.23;79.24;100760.88;5134349;27;20048;-86
2022/11/09 11:44:29;;;;;;;7.43;2.22;;;;;;;13.14;78.93;100770.91;5135608;27;20051;-86